This is the latest recevied weather packets stored in our database for station/object JE9BHE-13. If no packets are shown the sender has not sent any weather packets the latest 10 day(s).
| Time | Temp. | Humidity | Pressure | Rain* | Wind** | Luminosity | Snow |
|---|---|---|---|---|---|---|---|
| 1777782786 | 25° C | 34% | 1005 hPa | 0 mm | - | - | - |
| 1777781888 | 25.56° C | 35% | 1005.2 hPa | 0 mm | - | - | - |
| 1777781527 | 25.56° C | 33% | 1005.6 hPa | 0 mm | - | - | - |
| 1777780987 | 26.11° C | 36% | 1005.6 hPa | 0 mm | - | - | - |
| 1777780267 | 26.67° C | 37% | 1006.1 hPa | 0 mm | - | - | - |
| 1777779727 | 25.56° C | 37% | 1006 hPa | 0 mm | - | - | - |
| 1777778827 | 25.56° C | 40% | 1006.7 hPa | 0 mm | - | - | - |
| 1777773966 | 24.44° C | 43% | 1008.6 hPa | 0 mm | - | - | - |
| 1777773067 | 23.89° C | 45% | 1008.6 hPa | 0 mm | - | - | - |
| 1777772707 | 23.89° C | 44% | 1008.8 hPa | 0 mm | - | - | - |
| 1777771267 | 23.33° C | 48% | 1009.6 hPa | 0 mm | - | - | - |
| 1777770007 | 23.33° C | 44% | 1010.1 hPa | 0 mm | - | - | - |
| 1777767306 | 20.56° C | 51% | 1010.6 hPa | 0 mm | - | - | - |
| 1777766227 | 20° C | 51% | 1010.8 hPa | 0 mm | - | - | - |
| 1777765868 | 19.44° C | 52% | 1011.1 hPa | 0 mm | - | - | - |
| 1777765686 | 19.44° C | 52% | 1011.4 hPa | 0 mm | - | - | - |
| 1777765507 | 19.44° C | 53% | 1011.2 hPa | 0 mm | - | - | - |
| 1777763888 | 19.44° C | 52% | 1011.5 hPa | 0 mm | - | - | - |
| 1777761726 | 18.33° C | 52% | 1012.3 hPa | 0 mm | - | - | - |
| 1777759927 | 17.78° C | 57% | 1011.7 hPa | 0 mm | - | - | - |
| 1777759747 | 17.78° C | 57% | 1011.9 hPa | 0 mm | - | - | - |
| 1777759386 | 18.33° C | 54% | 1012.2 hPa | 0 mm | - | - | - |
| 1777758666 | 17.78° C | 53% | 1012.1 hPa | 0 mm | - | - | - |
| 1777757586 | 17.78° C | 55% | 1012.5 hPa | 0 mm | - | - | - |
| 1777756327 | 17.78° C | 54% | 1012.5 hPa | 0 mm | - | - | - |
* Rain latest hour (hover to see other rain measurements)
** Current wind speed in m/s (hover to see current wind gust speed)